createdAt,value
2022-12-18T00:01:37.018Z,64.50
2022-12-18T00:04:05.830Z,64.55
2022-12-18T00:06:33.525Z,64.77
2022-12-18T00:09:01.408Z,64.68
2022-12-18T00:11:28.791Z,64.63
2022-12-18T00:13:57.388Z,64.54
2022-12-18T00:16:25.821Z,64.62
2022-12-18T00:18:55.106Z,64.46
2022-12-18T00:21:22.009Z,64.70
2022-12-18T00:23:49.838Z,64.43
2022-12-18T00:26:18.080Z,64.21
2022-12-18T00:28:45.495Z,64.78
2022-12-18T00:31:17.844Z,64.60
2022-12-18T00:33:44.752Z,64.53
2022-12-18T00:36:14.554Z,64.63
2022-12-18T00:38:41.921Z,64.88
2022-12-18T00:41:11.437Z,64.53
2022-12-18T00:43:39.486Z,64.38
2022-12-18T00:46:06.733Z,64.37
2022-12-18T00:48:33.723Z,64.27
2022-12-18T00:51:00.290Z,64.26
2022-12-18T00:53:26.812Z,64.43
2022-12-18T00:55:53.307Z,64.38
2022-12-18T00:58:19.819Z,64.67
2022-12-18T01:00:46.506Z,64.77
2022-12-18T01:03:15.747Z,64.64
2022-12-18T01:05:44.163Z,65.07
2022-12-18T01:08:11.835Z,65.20
2022-12-18T01:10:41.867Z,64.92
2022-12-18T01:13:08.800Z,64.90
2022-12-18T01:15:35.797Z,64.89
2022-12-18T01:18:02.388Z,65.17
2022-12-18T01:20:29.090Z,65.11
2022-12-18T01:22:55.622Z,65.12
2022-12-18T01:25:22.118Z,65.18
2022-12-18T01:27:51.000Z,64.85
2022-12-18T01:30:17.667Z,64.83
2022-12-18T01:32:45.589Z,65.09
2022-12-18T01:35:12.093Z,65.29
2022-12-18T01:37:38.704Z,65.51
2022-12-18T01:40:06.019Z,65.35
2022-12-18T01:42:32.506Z,65.21
2022-12-18T01:45:12.430Z,65.21
2022-12-18T01:47:51.669Z,65.18
2022-12-18T01:50:25.681Z,65.03
2022-12-18T01:53:00.857Z,65.49
2022-12-18T01:55:31.785Z,65.58
2022-12-18T01:58:00.230Z,65.45
2022-12-18T02:00:27.886Z,65.58
2022-12-18T02:02:54.920Z,65.54
2022-12-18T02:05:35.093Z,64.89
2022-12-18T02:08:23.009Z,65.31
2022-12-18T02:11:08.269Z,65.04
2022-12-18T02:14:09.548Z,64.86
2022-12-18T02:16:57.230Z,65.04
2022-12-18T02:19:26.833Z,65.08
2022-12-18T02:22:25.843Z,65.03
2022-12-18T02:25:06.102Z,64.96
2022-12-18T02:27:34.985Z,65.11
2022-12-18T02:30:03.173Z,64.79
2022-12-18T02:32:34.762Z,64.46
2022-12-18T02:35:03.518Z,64.79
2022-12-18T02:37:32.270Z,64.82
2022-12-18T02:40:04.294Z,64.76
2022-12-18T02:42:33.805Z,64.86
2022-12-18T02:45:02.084Z,64.92
2022-12-18T02:47:33.675Z,64.75
2022-12-18T02:50:11.653Z,64.84
2022-12-18T02:53:05.811Z,64.72
2022-12-18T02:55:45.367Z,64.98
2022-12-18T02:59:02.402Z,64.68
2022-12-18T03:01:56.350Z,64.63
2022-12-18T03:04:31.595Z,64.56
2022-12-18T03:07:03.894Z,64.66
2022-12-18T03:09:39.316Z,64.51
2022-12-18T03:12:32.628Z,64.43
2022-12-18T03:15:04.762Z,64.60
2022-12-18T03:17:34.227Z,64.76
2022-12-18T03:20:09.594Z,64.35
2022-12-18T03:22:39.230Z,64.77
2022-12-18T03:25:11.571Z,64.72
2022-12-18T03:27:43.261Z,64.79
2022-12-18T03:30:14.137Z,64.79
2022-12-18T03:32:48.557Z,64.53
2022-12-18T03:35:24.242Z,64.47
2022-12-18T03:37:51.120Z,64.68
2022-12-18T03:40:19.271Z,64.82
2022-12-18T03:42:51.806Z,64.58
2022-12-18T03:45:33.554Z,64.71
2022-12-18T03:48:11.849Z,65.08
2022-12-18T03:50:56.444Z,64.53
2022-12-18T03:53:46.310Z,64.60
2022-12-18T03:56:15.905Z,64.56
2022-12-18T03:58:46.584Z,64.93
2022-12-18T04:01:20.939Z,64.71
2022-12-18T04:03:51.072Z,64.65
2022-12-18T04:06:20.250Z,64.87
2022-12-18T04:08:48.182Z,64.93
2022-12-18T04:11:18.097Z,64.70
2022-12-18T04:13:46.268Z,64.38
2022-12-18T04:16:21.916Z,64.36
2022-12-18T04:18:52.211Z,64.48
2022-12-18T04:21:20.367Z,64.17
2022-12-18T04:23:48.288Z,64.42
2022-12-18T04:26:15.004Z,64.33
2022-12-18T04:29:00.395Z,64.49
2022-12-18T04:31:29.682Z,64.48
2022-12-18T04:33:56.861Z,64.72
2022-12-18T04:36:23.817Z,64.79
2022-12-18T04:38:50.321Z,64.90
2022-12-18T04:41:17.655Z,64.85
2022-12-18T04:43:47.264Z,65.20
2022-12-18T04:46:14.254Z,65.18
2022-12-18T04:48:41.506Z,65.13
2022-12-18T04:51:08.547Z,65.04
2022-12-18T04:53:35.599Z,64.86
2022-12-18T04:56:09.887Z,64.71
2022-12-18T04:58:37.675Z,64.82
2022-12-18T05:01:04.556Z,64.72
2022-12-18T05:03:31.844Z,64.76
2022-12-18T05:06:01.101Z,64.73
2022-12-18T05:08:27.665Z,64.89
2022-12-18T05:11:00.860Z,64.60
2022-12-18T05:13:28.325Z,64.86
2022-12-18T05:15:55.594Z,64.79
2022-12-18T05:18:23.988Z,64.39
2022-12-18T05:20:52.220Z,64.43
2022-12-18T05:23:20.358Z,64.52
2022-12-18T05:25:54.369Z,64.20
2022-12-18T05:28:22.261Z,64.64
2022-12-18T05:30:55.676Z,64.36
2022-12-18T05:33:23.531Z,64.48
2022-12-18T05:36:00.986Z,64.27
2022-12-18T05:38:28.784Z,64.22
2022-12-18T05:40:56.381Z,64.39
2022-12-18T05:43:24.045Z,64.33
2022-12-18T05:45:51.101Z,64.27
2022-12-18T05:48:18.190Z,64.27
2022-12-18T05:50:46.743Z,64.28
2022-12-18T05:53:14.788Z,64.50
2022-12-18T05:55:42.730Z,64.39
2022-12-18T05:58:10.261Z,64.14
2022-12-18T06:00:39.067Z,64.43
2022-12-18T06:03:05.682Z,64.70
2022-12-18T06:05:39.818Z,64.37
2022-12-18T06:08:06.682Z,64.78
2022-12-18T06:10:33.414Z,64.58
2022-12-18T06:13:00.108Z,64.52
2022-12-18T06:15:26.728Z,64.46
2022-12-18T06:17:53.237Z,64.53
2022-12-18T06:20:19.954Z,64.70
2022-12-18T06:22:46.444Z,64.38
2022-12-18T06:25:12.991Z,64.27
2022-12-18T06:27:39.669Z,64.33
2022-12-18T06:30:07.167Z,64.09
2022-12-18T06:32:33.729Z,64.09
2022-12-18T06:35:00.180Z,64.04
2022-12-18T06:37:26.757Z,64.21
2022-12-18T06:39:54.338Z,64.06
2022-12-18T06:42:20.824Z,64.17
2022-12-18T06:44:47.331Z,64.36
2022-12-18T06:47:13.882Z,64.56
2022-12-18T06:49:40.635Z,64.56
2022-12-18T06:52:07.290Z,64.27
2022-12-18T06:54:33.769Z,64.37
2022-12-18T06:57:00.244Z,64.43
2022-12-18T06:59:26.757Z,64.41
2022-12-18T07:01:54.691Z,64.31
2022-12-18T07:04:21.346Z,64.22
2022-12-18T07:06:50.868Z,64.15
2022-12-18T07:09:17.349Z,64.26
2022-12-18T07:11:43.820Z,64.40
2022-12-18T07:14:10.405Z,64.41
2022-12-18T07:16:37.003Z,64.43
2022-12-18T07:19:03.620Z,64.82
2022-12-18T07:21:30.200Z,64.50
2022-12-18T07:23:57.209Z,64.31
2022-12-18T07:26:24.074Z,64.11
2022-12-18T07:28:50.957Z,64.07
2022-12-18T07:31:21.541Z,63.99
2022-12-18T07:33:49.096Z,64.17
2022-12-18T07:36:16.049Z,64.09
2022-12-18T07:38:42.665Z,64.30
2022-12-18T07:41:13.834Z,63.85
2022-12-18T07:43:42.040Z,64.45
2022-12-18T07:46:09.911Z,64.36
2022-12-18T07:48:36.544Z,64.48
2022-12-18T07:51:05.667Z,64.36
2022-12-18T07:53:33.343Z,64.47
2022-12-18T07:56:26.043Z,64.62
2022-12-18T07:58:48.735Z,64.44
2022-12-18T08:01:15.666Z,64.18
2022-12-18T08:03:42.861Z,63.55
2022-12-18T08:06:10.665Z,63.45
2022-12-18T08:08:37.385Z,63.33
2022-12-18T08:11:07.240Z,63.69
2022-12-18T08:13:33.721Z,64.12
2022-12-18T08:16:08.081Z,63.57
2022-12-18T08:18:36.356Z,64.33
2022-12-18T08:21:13.879Z,63.57
2022-12-18T08:23:42.959Z,64.48
2022-12-18T08:26:10.995Z,64.38
2022-12-18T08:28:37.621Z,64.49
2022-12-18T08:31:05.192Z,64.57
2022-12-18T08:33:32.100Z,64.54
2022-12-18T08:36:02.506Z,63.94
2022-12-18T08:38:29.325Z,64.33
2022-12-18T08:41:03.819Z,63.31
2022-12-18T08:43:30.789Z,64.21
2022-12-18T08:45:57.832Z,64.18
2022-12-18T08:48:24.459Z,64.19
2022-12-18T08:50:58.137Z,63.14
2022-12-18T08:53:30.346Z,63.62
2022-12-18T08:56:03.383Z,63.73
2022-12-18T08:58:30.419Z,63.33
2022-12-18T09:01:09.359Z,62.16
2022-12-18T09:03:36.574Z,63.26
2022-12-18T09:06:03.421Z,63.55
2022-12-18T09:08:30.096Z,63.22
2022-12-18T09:10:56.796Z,63.41
2022-12-18T09:13:23.660Z,63.17
2022-12-18T09:15:52.732Z,63.29
2022-12-18T09:18:21.012Z,63.26
2022-12-18T09:20:47.889Z,63.41
2022-12-18T09:23:14.636Z,63.75
2022-12-18T09:25:41.230Z,63.71
2022-12-18T09:28:12.778Z,62.52
2022-12-18T09:30:41.148Z,63.17
2022-12-18T09:33:07.750Z,63.36
2022-12-18T09:35:41.640Z,61.65
2022-12-18T09:38:09.836Z,62.68
2022-12-18T09:40:43.090Z,62.02
2022-12-18T09:43:15.980Z,62.58
2022-12-18T09:45:47.136Z,62.39
2022-12-18T09:48:27.437Z,62.05
2022-12-18T09:50:59.177Z,62.52
2022-12-18T09:53:31.577Z,61.51
2022-12-18T09:55:58.591Z,62.97
2022-12-18T09:58:35.940Z,61.52
2022-12-18T10:01:02.697Z,62.96
2022-12-18T10:03:29.262Z,62.67
2022-12-18T10:06:02.669Z,60.51
2022-12-18T10:08:39.089Z,61.44
2022-12-18T10:11:43.738Z,60.51
2022-12-18T10:14:37.408Z,61.52
2022-12-18T10:17:33.444Z,61.48
2022-12-18T10:20:06.225Z,61.45
2022-12-18T10:22:54.104Z,60.33
2022-12-18T10:25:34.115Z,60.71
2022-12-18T10:28:11.445Z,59.83
2022-12-18T10:30:40.494Z,61.07
2022-12-18T10:33:10.453Z,61.78
2022-12-18T10:35:37.345Z,62.19
2022-12-18T10:38:06.884Z,62.53
2022-12-18T10:40:48.030Z,62.64
2022-12-18T10:43:15.932Z,62.35
2022-12-18T10:45:44.485Z,62.58
2022-12-18T10:48:22.729Z,60.81
2022-12-18T10:53:38.559Z,62.84
2022-12-18T10:56:07.379Z,62.11
2022-12-18T10:58:39.113Z,61.13
2022-12-18T11:01:17.498Z,60.16
2022-12-18T11:04:01.624Z,59.40
2022-12-18T11:06:29.771Z,62.29
2022-12-18T11:09:18.834Z,61.38
2022-12-18T11:11:50.933Z,60.51
2022-12-18T11:14:26.678Z,60.08
2022-12-18T11:17:24.316Z,61.63
2022-12-18T11:19:42.553Z,61.97
2022-12-18T11:22:25.841Z,57.63
2022-12-18T11:28:03.278Z,61.59
2022-12-18T11:30:37.543Z,60.38
2022-12-18T11:33:06.581Z,62.07
2022-12-18T11:35:42.001Z,62.19
2022-12-18T11:38:33.693Z,59.91
2022-12-18T11:41:02.924Z,60.70
2022-12-18T11:43:42.898Z,59.38
2022-12-18T11:46:19.944Z,59.09
2022-12-18T11:49:14.016Z,59.55
2022-12-18T11:51:50.958Z,59.83
2022-12-18T11:54:18.503Z,61.17
2022-12-18T11:57:15.366Z,58.91
2022-12-18T11:59:41.874Z,61.25
2022-12-18T12:02:34.634Z,58.95
2022-12-18T12:05:04.079Z,60.97
2022-12-18T12:07:42.649Z,60.48
2022-12-18T12:10:14.946Z,61.24
2022-12-18T12:12:58.514Z,59.96
2022-12-18T12:16:01.096Z,57.02
2022-12-18T12:18:45.880Z,58.11
2022-12-18T12:21:26.751Z,59.59
2022-12-18T12:24:10.509Z,60.52
2022-12-18T12:26:45.053Z,60.30
2022-12-18T12:29:31.652Z,59.52
2022-12-18T12:32:23.624Z,59.25
2022-12-18T12:35:02.718Z,60.13
2022-12-18T12:37:43.036Z,60.43
2022-12-18T12:40:49.768Z,59.84
2022-12-18T12:43:13.269Z,59.34
2022-12-18T12:45:47.562Z,59.67
2022-12-18T12:48:22.529Z,59.14
2022-12-18T12:50:50.155Z,60.31
2022-12-18T12:53:27.715Z,59.65
2022-12-18T12:55:55.264Z,60.30
2022-12-18T12:58:33.870Z,59.59
2022-12-18T13:01:33.563Z,59.64
2022-12-18T13:04:26.671Z,59.48
2022-12-18T13:07:03.055Z,59.83
2022-12-18T13:09:34.922Z,60.23
2022-12-18T13:12:11.975Z,60.56
2022-12-18T13:14:40.791Z,61.32
2022-12-18T13:17:24.967Z,59.86
2022-12-18T13:19:53.473Z,60.88
2022-12-18T13:22:37.262Z,59.86
2022-12-18T13:25:24.722Z,60.50
2022-12-18T13:28:06.664Z,59.64
2022-12-18T13:30:33.198Z,60.98
2022-12-18T13:33:22.984Z,59.68
2022-12-18T13:35:49.505Z,61.02
2022-12-18T13:38:41.084Z,59.66
2022-12-18T13:41:16.443Z,59.64
2022-12-18T13:43:52.380Z,59.91
2022-12-18T13:46:42.965Z,60.03
2022-12-18T13:49:15.658Z,59.95
2022-12-18T13:51:45.006Z,60.66
2022-12-18T13:54:18.893Z,60.03
2022-12-18T13:56:47.544Z,60.87
2022-12-18T13:59:25.325Z,60.79
2022-12-18T14:01:59.516Z,60.25
2022-12-18T14:04:31.339Z,60.65
2022-12-18T14:07:18.013Z,59.45
2022-12-18T14:09:58.129Z,59.69
2022-12-18T14:12:32.079Z,60.07
2022-12-18T14:15:01.279Z,59.94
2022-12-18T14:17:27.837Z,60.05
2022-12-18T14:19:55.034Z,59.99
2022-12-18T14:22:26.638Z,59.66
2022-12-18T14:25:21.231Z,59.47
2022-12-18T14:27:51.994Z,60.11
2022-12-18T14:30:24.852Z,60.22
2022-12-18T14:33:11.537Z,60.29
2022-12-18T14:35:52.816Z,60.54
2022-12-18T14:38:25.645Z,60.62
2022-12-18T14:41:16.841Z,60.36
2022-12-18T14:43:45.540Z,61.04
2022-12-18T14:46:35.448Z,60.38
2022-12-18T14:49:20.444Z,60.87
2022-12-18T14:51:55.893Z,60.50
2022-12-18T14:54:24.075Z,61.01
2022-12-18T14:56:57.335Z,60.92
2022-12-18T14:59:26.156Z,61.16
2022-12-18T15:02:17.048Z,60.70
2022-12-18T15:04:44.503Z,61.39
2022-12-18T15:07:20.113Z,61.25
2022-12-18T15:10:08.112Z,60.87
2022-12-18T15:12:39.764Z,61.57
2022-12-18T15:15:26.575Z,61.65
2022-12-18T15:18:00.995Z,61.24
2022-12-18T15:20:32.388Z,61.29
2022-12-18T15:22:59.078Z,61.42
2022-12-18T15:25:37.384Z,61.45
2022-12-18T15:28:05.146Z,61.61
2022-12-18T15:30:31.619Z,61.59
2022-12-18T15:33:18.587Z,61.10
2022-12-18T15:35:47.102Z,61.54
2022-12-18T15:38:13.801Z,61.67
2022-12-18T15:40:40.439Z,61.60
2022-12-18T15:43:10.063Z,61.29
2022-12-18T15:45:36.540Z,61.67
2022-12-18T15:48:03.199Z,61.74
2022-12-18T15:50:29.872Z,61.72
2022-12-18T15:52:57.561Z,61.87
2022-12-18T15:55:25.253Z,61.85
2022-12-18T15:57:51.814Z,61.79
2022-12-18T16:00:18.758Z,61.78
2022-12-18T16:02:45.756Z,61.70
2022-12-18T16:05:17.208Z,61.49
2022-12-18T16:07:44.810Z,61.85
2022-12-18T16:10:12.225Z,61.68
2022-12-18T16:12:39.149Z,62.00
2022-12-18T16:15:06.705Z,61.97
2022-12-18T16:17:34.278Z,61.94
2022-12-18T16:20:00.889Z,62.02
2022-12-18T16:22:29.732Z,62.16
2022-12-18T16:24:57.410Z,62.17
2022-12-18T16:27:24.847Z,62.44
2022-12-18T16:29:51.608Z,62.56
2022-12-18T16:32:20.279Z,62.69
2022-12-18T16:34:47.392Z,62.57
2022-12-18T16:37:15.142Z,62.80
2022-12-18T16:39:42.247Z,63.06
2022-12-18T16:42:16.693Z,62.69
2022-12-18T16:44:43.592Z,62.67
2022-12-18T16:47:11.387Z,62.96
2022-12-18T16:49:41.411Z,62.96
2022-12-18T16:52:08.367Z,62.54
2022-12-18T16:54:34.867Z,62.52
2022-12-18T16:57:01.421Z,62.68
2022-12-18T16:59:28.120Z,62.76
2022-12-18T17:01:55.317Z,62.73
2022-12-18T17:04:21.843Z,62.81
2022-12-18T17:06:48.422Z,62.77
2022-12-18T17:09:15.802Z,62.85
2022-12-18T17:11:45.004Z,63.11
2022-12-18T17:14:15.749Z,62.98
2022-12-18T17:16:42.261Z,62.92
2022-12-18T17:19:13.746Z,62.98
2022-12-18T17:21:44.465Z,63.29
2022-12-18T17:24:10.941Z,63.14
2022-12-18T17:26:37.630Z,63.24
2022-12-18T17:29:04.433Z,63.31
2022-12-18T17:31:31.383Z,63.05
2022-12-18T17:33:58.671Z,63.29
2022-12-18T17:36:26.267Z,63.39
2022-12-18T17:38:56.090Z,63.20
2022-12-18T17:41:23.628Z,63.13
2022-12-18T17:43:57.870Z,62.90
2022-12-18T17:46:25.452Z,63.27
2022-12-18T17:48:54.860Z,63.41
2022-12-18T17:51:21.656Z,63.59
2022-12-18T17:53:48.294Z,63.34
2022-12-18T17:56:16.924Z,63.24
2022-12-18T17:58:44.092Z,63.38
2022-12-18T18:01:23.321Z,62.77
2022-12-18T18:03:52.880Z,63.15
2022-12-18T18:06:20.606Z,63.21
2022-12-18T18:08:47.418Z,63.28
2022-12-18T18:11:18.079Z,63.24
2022-12-18T18:13:47.206Z,63.40
2022-12-18T18:16:13.968Z,63.37
2022-12-18T18:18:40.514Z,63.51
2022-12-18T18:21:10.023Z,63.16
2022-12-18T18:23:37.321Z,63.21
2022-12-18T18:26:08.332Z,63.35
2022-12-18T18:28:36.276Z,63.26
2022-12-18T18:31:06.371Z,62.91
2022-12-18T18:33:33.381Z,63.01
2022-12-18T18:35:59.934Z,62.73
2022-12-18T18:38:26.878Z,62.67
2022-12-18T18:41:03.854Z,62.09
2022-12-18T18:43:31.113Z,62.29
2022-12-18T18:45:58.709Z,62.25
2022-12-18T18:48:26.544Z,62.08
2022-12-18T18:51:00.790Z,61.71
2022-12-18T18:53:27.761Z,62.21
2022-12-18T18:56:34.496Z,62.32
2022-12-18T18:58:44.559Z,62.35
2022-12-18T19:01:17.507Z,62.19
2022-12-18T19:03:45.096Z,62.55
2022-12-18T19:06:16.264Z,62.43
2022-12-18T19:08:43.813Z,62.64
2022-12-18T19:11:11.365Z,62.34
2022-12-18T19:13:37.953Z,62.87
2022-12-18T19:16:09.065Z,62.66
2022-12-18T19:18:37.020Z,62.79
2022-12-18T19:21:06.523Z,62.60
2022-12-18T19:23:34.623Z,62.89
2022-12-18T19:26:27.071Z,63.15
2022-12-18T19:28:50.010Z,63.13
2022-12-18T19:31:24.374Z,62.94
2022-12-18T19:33:52.114Z,62.79
2022-12-18T19:36:21.436Z,62.71
2022-12-18T19:38:50.280Z,62.76
2022-12-18T19:41:18.035Z,63.07
2022-12-18T19:43:45.903Z,62.88
2022-12-18T19:46:18.295Z,62.53
2022-12-18T19:48:45.464Z,62.82
2022-12-18T19:51:16.343Z,62.48
2022-12-18T19:53:42.997Z,62.86
2022-12-18T19:56:15.813Z,62.62
2022-12-18T19:58:43.417Z,62.71
2022-12-18T20:01:10.583Z,62.80
2022-12-18T20:03:39.087Z,62.89
2022-12-18T20:06:18.894Z,62.58
2022-12-18T20:08:46.011Z,63.05
2022-12-18T20:11:12.815Z,63.00
2022-12-18T20:13:39.637Z,63.07
2022-12-18T20:16:06.627Z,63.15
2022-12-18T20:18:33.587Z,62.97
2022-12-18T20:21:00.145Z,63.18
2022-12-18T20:23:28.167Z,62.89
2022-12-18T20:25:55.381Z,63.04
2022-12-18T20:28:23.610Z,63.02
2022-12-18T20:30:50.677Z,63.09
2022-12-18T20:33:17.430Z,63.06
2022-12-18T20:35:43.976Z,63.21
2022-12-18T20:38:10.562Z,63.39
2022-12-18T20:40:41.428Z,63.12
2022-12-18T20:43:12.433Z,63.34
2022-12-18T20:45:42.046Z,63.46
2022-12-18T20:48:10.446Z,63.36
2022-12-18T20:50:37.017Z,63.27
2022-12-18T20:53:04.002Z,63.38
2022-12-18T20:55:30.497Z,63.29
2022-12-18T20:57:57.880Z,62.99
2022-12-18T21:00:24.368Z,63.02
2022-12-18T21:02:51.012Z,63.11
2022-12-18T21:05:17.640Z,63.25
2022-12-18T21:07:44.218Z,63.03
2022-12-18T21:10:10.802Z,63.13
2022-12-18T21:12:42.682Z,63.22
2022-12-18T21:15:28.534Z,63.12
2022-12-18T21:17:55.499Z,63.03
2022-12-18T21:20:22.057Z,62.76
2022-12-18T21:22:48.548Z,62.95
2022-12-18T21:25:15.026Z,62.74
2022-12-18T21:27:41.596Z,62.85
2022-12-18T21:30:08.626Z,62.87
2022-12-18T21:32:35.095Z,62.96
2022-12-18T21:35:01.713Z,63.04
2022-12-18T21:37:28.180Z,63.15
2022-12-18T21:39:54.765Z,63.16
2022-12-18T21:42:21.261Z,63.07
2022-12-18T21:44:48.427Z,63.08
2022-12-18T21:47:21.516Z,62.86
2022-12-18T21:49:50.772Z,62.71
2022-12-18T21:52:17.323Z,62.53
2022-12-18T21:54:43.888Z,62.52
2022-12-18T21:57:10.792Z,62.65
2022-12-18T21:59:40.150Z,62.54
2022-12-18T22:02:25.036Z,61.98
2022-12-18T22:04:51.725Z,62.60
2022-12-18T22:07:18.605Z,62.57
2022-12-18T22:09:45.177Z,62.50
2022-12-18T22:12:13.628Z,62.32
2022-12-18T22:14:40.591Z,62.25
2022-12-18T22:17:07.086Z,62.05
2022-12-18T22:19:39.613Z,61.67
2022-12-18T22:22:09.332Z,62.00
2022-12-18T22:24:35.848Z,62.12
2022-12-18T22:27:06.433Z,62.20
2022-12-18T22:29:32.945Z,62.35
2022-12-18T22:32:00.815Z,62.06
2022-12-18T22:34:27.337Z,62.49
2022-12-18T22:36:54.291Z,62.75
2022-12-18T22:39:26.137Z,62.61
2022-12-18T22:41:55.775Z,62.89
2022-12-18T22:44:22.627Z,63.14
2022-12-18T22:47:03.516Z,63.21
2022-12-18T22:49:32.388Z,63.31
2022-12-18T22:52:00.466Z,63.37
2022-12-18T22:54:27.110Z,63.63
2022-12-18T22:56:53.557Z,63.54
2022-12-18T22:59:23.030Z,63.52
2022-12-18T23:01:50.845Z,63.44
2022-12-18T23:04:18.189Z,63.56
2022-12-18T23:06:46.496Z,63.36
2022-12-18T23:09:16.337Z,63.44
2022-12-18T23:11:42.985Z,63.59
2022-12-18T23:14:09.564Z,63.47
2022-12-18T23:16:36.115Z,63.68
2022-12-18T23:19:02.741Z,63.62
2022-12-18T23:21:29.590Z,63.51
2022-12-18T23:23:57.058Z,62.57
2022-12-18T23:26:25.008Z,63.16
2022-12-18T23:28:52.042Z,62.32
2022-12-18T23:31:24.818Z,62.64
2022-12-18T23:33:52.159Z,63.30
2022-12-18T23:36:20.036Z,63.52
2022-12-18T23:38:51.468Z,62.99
2022-12-18T23:41:19.862Z,63.45
2022-12-18T23:43:46.601Z,63.51
2022-12-18T23:46:21.526Z,62.37
2022-12-18T23:48:48.927Z,63.43
2022-12-18T23:51:16.854Z,63.37
2022-12-18T23:53:43.752Z,61.83
2022-12-18T23:56:12.388Z,63.08
2022-12-18T23:58:39.432Z,63.25
